CST,Max TemperatureF,Mean TemperatureF,Min TemperatureF,Max Dew PointF,MeanDew PointF,Min DewpointF,Max Humidity, Mean Humidity, Min Humidity, Max Sea Level PressureIn, Mean Sea Level PressureIn, Min Sea Level PressureIn, Max VisibilityMiles, Mean VisibilityMiles, Min VisibilityMiles, Max Wind SpeedMPH, Mean Wind SpeedMPH, Max Gust SpeedMPH,PrecipitationIn, CloudCover, Events, WindDirDegrees
2013-1-1,70,68,68,67,67,66,93,92,91,29.94,29.91,29.87,7,7,7,18,10,,0.04,6,Rain,151
2013-1-2,,,,,,,,,,,,,,,,,,,,,,
2013-1-3,,,,,,,,,,,,,,,,,,,,,,
2013-1-4,,,,,,,,,,,,,,,,,,,,,,
2013-1-5,,,,,,,,,,,,,,,,,,,,,,
2013-1-6,65,56,42,44,41,35,91,61,33,30.32,30.30,30.26,10,10,7,10,7,,0.00,0,,60
2013-1-7,65,51,37,55,46,35,94,81,59,30.32,30.18,30.01,10,9,4,15,7,17,0.00,2,,48
2013-1-8,70,63,56,68,62,55,97,94,88,29.99,29.88,29.77,10,5,0,24,11,30,0.15,7,Fog-Rain-Thunderstorm,87
2013-1-9,68,61,54,67,60,53,96,91,80,30.06,29.93,29.83,10,8,4,20,9,26,0.18,6,Rain-Thunderstorm,271
2013-1-10,70,60,49,53,49,46,96,74,43,30.11,30.06,30.02,10,9,5,15,5,,0.00,0,,255
2013-1-11,79,63,47,70,60,46,97,87,62,30.05,29.92,29.82,10,8,0,23,8,28,0.00,4,Fog,156
2013-1-12,85,78,71,71,69,67,94,84,54,29.85,29.73,29.64,10,7,2,31,16,37,0.00,3,,155
2013-1-13,72,60,49,70,44,35,93,67,42,30.10,29.99,29.72,10,9,2,28,13,34,0.02,6,Rain,2
2013-1-14,50,47,44,43,37,34,94,69,56,30.20,30.13,30.08,10,9,4,16,11,22,0.00,8,,21
2013-1-15,45,44,42,45,41,36,96,89,75,30.25,30.12,30.05,10,7,2,20,12,23,0.03,8,Rain,350
2013-1-16,59,46,34,36,25,13,78,49,16,30.40,30.31,30.23,10,10,10,28,12,29,0.00,2,,306
2013-1-17,69,52,34,38,31,25,75,50,25,30.47,30.40,30.33,10,10,10,17,7,22,0.00,0,,322
2013-1-18,68,52,37,49,40,32,88,65,38,30.52,30.43,30.33,10,10,5,12,5,17,0.00,0,,61
2013-1-19,74,58,43,52,47,42,95,68,34,30.32,30.24,30.15,10,10,7,14,6,20,0.00,0,,114
2013-1-20,76,60,45,55,50,44,95,73,37,30.26,30.18,30.10,10,9,0,17,4,24,0.00,1,Fog,117
2013-1-21,75,64,52,57,50,40,94,70,29,30.25,30.17,30.12,10,10,5,15,5,20,0.00,0,,97
2013-1-22,76,61,46,57,52,44,95,73,36,30.31,30.24,30.18,10,9,4,16,6,24,0.00,0,,92
2013-1-23,80,66,51,63,58,49,94,77,50,30.34,30.27,30.22,10,9,5,18,6,23,0.00,2,,142
2013-1-24,84,70,55,64,60,54,97,79,35,30.31,30.21,30.13,10,8,0,20,8,24,0.00,2,Fog,166
2013-1-25,84,70,55,66,62,55,97,78,47,30.18,30.10,30.04,10,7,0,21,9,26,0.00,2,Fog,158
2013-1-26,82,72,61,65,61,57,96,76,43,30.15,30.09,30.04,10,9,5,23,11,29,0.00,0,,141
2013-1-27,78,69,60,68,66,58,96,84,68,30.09,30.03,29.97,10,10,7,26,14,33,0.00,6,,141
2013-1-28,81,76,70,70,69,68,92,83,64,30.07,29.98,29.90,10,8,5,31,19,37,0.00,7,Rain,151
2013-1-29,91,80,68,69,64,39,92,66,33,29.91,29.73,29.58,10,9,7,34,19,41,0.00,3,,166
2013-1-30,69,60,50,40,19,10,37,21,11,30.26,30.07,29.77,10,10,4,32,16,40,0.00,2,,345
2013-1-31,71,53,35,45,24,11,62,34,13,30.35,30.27,30.21,10,10,10,21,5,23,0.00,0,,182